sensor_id;sensor_type;location;lat;lon;timestamp;pressure;altitude;pressure_sealevel;temperature;humidity
78073;BME280;67281;48.770;11.440;2023-08-01T00:01:32;96382.59;;;23.15;54.29
78073;BME280;67281;48.770;11.440;2023-08-01T00:03:59;96381.38;;;23.17;54.79
78073;BME280;67281;48.770;11.440;2023-08-01T00:06:26;96383.41;;;23.15;54.05
78073;BME280;67281;48.770;11.440;2023-08-01T00:08:53;96372.72;;;23.15;54.57
78073;BME280;67281;48.770;11.440;2023-08-01T00:11:20;96375.41;;;23.15;54.89
78073;BME280;67281;48.770;11.440;2023-08-01T00:13:47;96371.09;;;23.14;54.77
78073;BME280;67281;48.770;11.440;2023-08-01T00:16:14;96369.22;;;23.15;54.85
78073;BME280;67281;48.770;11.440;2023-08-01T00:18:41;96366.97;;;23.12;54.53
78073;BME280;67281;48.770;11.440;2023-08-01T00:21:07;96350.94;;;23.12;55.05
78073;BME280;67281;48.770;11.440;2023-08-01T00:23:38;96352.78;;;23.11;54.93
78073;BME280;67281;48.770;11.440;2023-08-01T00:26:05;96338.41;;;23.12;54.56
78073;BME280;67281;48.770;11.440;2023-08-01T00:28:32;96340.25;;;23.12;54.97
78073;BME280;67281;48.770;11.440;2023-08-01T00:31:06;96331.41;;;23.11;54.46
78073;BME280;67281;48.770;11.440;2023-08-01T00:33:35;96326.28;;;23.10;55.04
78073;BME280;67281;48.770;11.440;2023-08-01T00:36:02;96328.72;;;23.11;54.69
78073;BME280;67281;48.770;11.440;2023-08-01T00:38:29;96321.75;;;23.10;55.07
78073;BME280;67281;48.770;11.440;2023-08-01T00:40:56;96315.56;;;23.10;54.52
78073;BME280;67281;48.770;11.440;2023-08-01T00:43:23;96305.09;;;23.08;54.69
78073;BME280;67281;48.770;11.440;2023-08-01T00:45:49;96303.25;;;23.09;55.21
78073;BME280;67281;48.770;11.440;2023-08-01T00:48:17;96297.69;;;23.10;54.78
78073;BME280;67281;48.770;11.440;2023-08-01T00:50:45;96298.72;;;23.09;54.42
78073;BME280;67281;48.770;11.440;2023-08-01T00:53:13;96302.22;;;23.10;54.68
78073;BME280;67281;48.770;11.440;2023-08-01T00:55:40;96290.69;;;23.09;54.78
78073;BME280;67281;48.770;11.440;2023-08-01T00:58:07;96282.91;;;23.08;54.71
78073;BME280;67281;48.770;11.440;2023-08-01T01:00:34;96280.22;;;23.08;54.75
78073;BME280;67281;48.770;11.440;2023-08-01T01:03:02;96279.41;;;23.07;55.30
78073;BME280;67281;48.770;11.440;2023-08-01T01:05:35;96276.94;;;23.06;54.54
78073;BME280;67281;48.770;11.440;2023-08-01T01:08:03;96280.44;;;23.06;54.54
78073;BME280;67281;48.770;11.440;2023-08-01T01:10:31;96279.41;;;23.07;54.65
78073;BME280;67281;48.770;11.440;2023-08-01T01:12:58;96278.56;;;23.07;54.38
78073;BME280;67281;48.770;11.440;2023-08-01T01:15:24;96276.72;;;23.07;54.47
78073;BME280;67281;48.770;11.440;2023-08-01T01:17:52;96276.94;;;23.06;54.47
78073;BME280;67281;48.770;11.440;2023-08-01T01:20:25;96286.59;;;23.07;54.56
78073;BME280;67281;48.770;11.440;2023-08-01T01:22:54;96282.28;;;23.06;54.93
78073;BME280;67281;48.770;11.440;2023-08-01T01:25:22;96285.97;;;23.05;54.83
78073;BME280;67281;48.770;11.440;2023-08-01T01:27:49;96294.81;;;23.05;54.17
78073;BME280;67281;48.770;11.440;2023-08-01T01:30:18;96291.53;;;23.03;55.13
78073;BME280;67281;48.770;11.440;2023-08-01T01:32:45;96283.53;;;23.03;54.48
78073;BME280;67281;48.770;11.440;2023-08-01T01:35:12;96268.53;;;23.02;54.15
78073;BME280;67281;48.770;11.440;2023-08-01T01:37:39;96262.13;;;23.03;54.76
78073;BME280;67281;48.770;11.440;2023-08-01T01:40:06;96265.88;;;23.02;54.06
78073;BME280;67281;48.770;11.440;2023-08-01T01:42:34;96257.84;;;23.02;55.07
78073;BME280;67281;48.770;11.440;2023-08-01T01:45:00;96249.03;;;23.02;54.46
78073;BME280;67281;48.770;11.440;2023-08-01T01:47:27;96251.69;;;23.02;54.94
78073;BME280;67281;48.770;11.440;2023-08-01T01:49:54;96247.38;;;23.01;54.48
78073;BME280;67281;48.770;11.440;2023-08-01T01:52:21;96236.69;;;23.01;54.73
78073;BME280;67281;48.770;11.440;2023-08-01T01:54:48;96232.38;;;23.00;54.98
78073;BME280;67281;48.770;11.440;2023-08-01T01:57:14;96227.84;;;23.00;54.44
78073;BME280;67281;48.770;11.440;2023-08-01T01:59:41;96219.84;;;23.00;54.91
78073;BME280;67281;48.770;11.440;2023-08-01T02:02:08;96208.31;;;23.00;54.30
78073;BME280;67281;48.770;11.440;2023-08-01T02:04:35;96207.72;;;22.98;55.10
78073;BME280;67281;48.770;11.440;2023-08-01T02:07:02;96204.00;;;22.99;55.21
78073;BME280;67281;48.770;11.440;2023-08-01T02:09:29;96209.56;;;22.97;54.91
78073;BME280;67281;48.770;11.440;2023-08-01T02:11:56;96207.94;;;22.96;54.42
78073;BME280;67281;48.770;11.440;2023-08-01T02:14:23;96211.22;;;22.98;54.67
78073;BME280;67281;48.770;11.440;2023-08-01T02:16:50;96205.03;;;22.98;55.25
78073;BME280;67281;48.770;11.440;2023-08-01T02:19:16;96203.41;;;22.97;54.40
78073;BME280;67281;48.770;11.440;2023-08-01T02:21:43;96192.72;;;22.97;54.18
78073;BME280;67281;48.770;11.440;2023-08-01T02:24:10;96184.91;;;22.95;54.35
78073;BME280;67281;48.770;11.440;2023-08-01T02:26:38;96189.44;;;22.94;54.76
78073;BME280;67281;48.770;11.440;2023-08-01T02:29:05;96185.94;;;22.94;54.79
78073;BME280;67281;48.770;11.440;2023-08-01T02:31:32;96174.44;;;22.93;55.44
78073;BME280;67281;48.770;11.440;2023-08-01T02:33:58;96169.91;;;22.94;54.27
78073;BME280;67281;48.770;11.440;2023-08-01T02:36:25;96155.72;;;22.93;54.69
78073;BME280;67281;48.770;11.440;2023-08-01T02:38:52;96168.28;;;22.93;54.88
78073;BME280;67281;48.770;11.440;2023-08-01T02:41:19;96170.94;;;22.93;54.94
78073;BME280;67281;48.770;11.440;2023-08-01T02:43:45;96155.13;;;22.91;54.65
78073;BME280;67281;48.770;11.440;2023-08-01T02:46:12;96146.28;;;22.91;55.04
78073;BME280;67281;48.770;11.440;2023-08-01T02:48:39;96150.81;;;22.90;54.99
78073;BME280;67281;48.770;11.440;2023-08-01T02:51:06;96150.19;;;22.88;55.10
78073;BME280;67281;48.770;11.440;2023-08-01T02:53:36;96161.50;;;22.90;55.33
78073;BME280;67281;48.770;11.440;2023-08-01T02:56:03;96150.19;;;22.88;55.24
78073;BME280;67281;48.770;11.440;2023-08-01T02:58:33;96157.41;;;22.88;55.51
78073;BME280;67281;48.770;11.440;2023-08-01T03:00:59;96152.06;;;22.88;55.33
78073;BME280;67281;48.770;11.440;2023-08-01T03:03:27;96168.91;;;22.88;55.61
78073;BME280;67281;48.770;11.440;2023-08-01T03:05:55;96176.09;;;22.88;55.21
78073;BME280;67281;48.770;11.440;2023-08-01T03:08:21;96172.59;;;22.87;54.80
78073;BME280;67281;48.770;11.440;2023-08-01T03:10:48;96176.31;;;22.86;55.13
78073;BME280;67281;48.770;11.440;2023-08-01T03:13:15;96178.97;;;22.86;55.26
78073;BME280;67281;48.770;11.440;2023-08-01T03:15:42;96184.31;;;22.86;54.96
78073;BME280;67281;48.770;11.440;2023-08-01T03:18:09;96188.03;;;22.85;55.53
78073;BME280;67281;48.770;11.440;2023-08-01T03:20:36;96187.19;;;22.85;55.63
78073;BME280;67281;48.770;11.440;2023-08-01T03:23:03;96180.22;;;22.84;54.62
78073;BME280;67281;48.770;11.440;2023-08-01T03:25:30;96182.28;;;22.82;55.39
78073;BME280;67281;48.770;11.440;2023-08-01T03:27:57;96180.84;;;22.79;55.72
78073;BME280;67281;48.770;11.440;2023-08-01T03:30:23;96196.88;;;22.79;55.37
78073;BME280;67281;48.770;11.440;2023-08-01T03:32:51;96198.09;;;22.77;55.46
78073;BME280;67281;48.770;11.440;2023-08-01T03:35:18;96182.06;;;22.77;55.49
78073;BME280;67281;48.770;11.440;2023-08-01T03:37:45;96203.63;;;22.75;55.07
78073;BME280;67281;48.770;11.440;2023-08-01T03:40:11;96203.84;;;22.74;55.31
78073;BME280;67281;48.770;11.440;2023-08-01T03:42:38;96207.97;;;22.70;55.83
78073;BME280;67281;48.770;11.440;2023-08-01T03:45:06;96204.06;;;22.66;55.60
78073;BME280;67281;48.770;11.440;2023-08-01T03:47:33;96196.88;;;22.66;55.83
78073;BME280;67281;48.770;11.440;2023-08-01T03:50:00;96198.31;;;22.69;55.84
78073;BME280;67281;48.770;11.440;2023-08-01T03:52:26;96195.03;;;22.67;55.91
78073;BME280;67281;48.770;11.440;2023-08-01T03:54:55;96191.34;;;22.61;55.91
78073;BME280;67281;48.770;11.440;2023-08-01T03:57:22;96183.53;;;22.59;55.92
78073;BME280;67281;48.770;11.440;2023-08-01T03:59:49;96186.41;;;22.58;56.08
78073;BME280;67281;48.770;11.440;2023-08-01T04:02:15;96173.47;;;22.55;55.64
78073;BME280;67281;48.770;11.440;2023-08-01T04:04:42;96152.13;;;22.55;55.61
78073;BME280;67281;48.770;11.440;2023-08-01T04:07:09;96152.72;;;22.57;55.68
78073;BME280;67281;48.770;11.440;2023-08-01T04:09:36;96138.94;;;22.60;55.11
78073;BME280;67281;48.770;11.440;2023-08-01T04:12:05;96124.78;;;22.59;55.83
78073;BME280;67281;48.770;11.440;2023-08-01T04:14:34;96140.19;;;22.57;55.92
78073;BME280;67281;48.770;11.440;2023-08-01T04:17:01;96144.50;;;22.58;55.68
78073;BME280;67281;48.770;11.440;2023-08-01T04:19:27;96149.63;;;22.60;55.61
78073;BME280;67281;48.770;11.440;2023-08-01T04:21:54;96143.47;;;22.59;56.18
78073;BME280;67281;48.770;11.440;2023-08-01T04:24:21;96144.72;;;22.57;56.33
78073;BME280;67281;48.770;11.440;2023-08-01T04:26:51;96133.41;;;22.55;56.53
78073;BME280;67281;48.770;11.440;2023-08-01T04:29:19;96125.41;;;22.55;56.29
78073;BME280;67281;48.770;11.440;2023-08-01T04:31:46;96141.44;;;22.55;56.31
78073;BME280;67281;48.770;11.440;2023-08-01T04:34:13;96133.81;;;22.58;56.71
78073;BME280;67281;48.770;11.440;2023-08-01T04:36:39;96116.78;;;22.59;57.00
78073;BME280;67281;48.770;11.440;2023-08-01T04:39:07;96114.31;;;22.58;56.65
78073;BME280;67281;48.770;11.440;2023-08-01T04:41:36;96123.13;;;22.58;56.97
78073;BME280;67281;48.770;11.440;2023-08-01T04:44:03;96114.09;;;22.59;57.26
78073;BME280;67281;48.770;11.440;2023-08-01T04:46:30;96108.97;;;22.58;57.31
78073;BME280;67281;48.770;11.440;2023-08-01T04:48:57;96094.81;;;22.57;56.60
78073;BME280;67281;48.770;11.440;2023-08-01T04:51:24;96094.59;;;22.59;56.64
78073;BME280;67281;48.770;11.440;2023-08-01T04:53:51;96095.63;;;22.58;56.83
78073;BME280;67281;48.770;11.440;2023-08-01T04:56:18;96098.91;;;22.60;57.29
78073;BME280;67281;48.770;11.440;2023-08-01T04:58:45;96098.06;;;22.59;56.78
78073;BME280;67281;48.770;11.440;2023-08-01T05:01:12;96088.22;;;22.60;57.20
78073;BME280;67281;48.770;11.440;2023-08-01T05:03:39;96090.06;;;22.59;57.00
78073;BME280;67281;48.770;11.440;2023-08-01T05:06:05;96086.38;;;22.60;57.65
78073;BME280;67281;48.770;11.440;2023-08-01T05:08:33;96091.91;;;22.59;57.52
78073;BME280;67281;48.770;11.440;2023-08-01T05:10:59;96089.25;;;22.59;57.12
78073;BME280;67281;48.770;11.440;2023-08-01T05:13:26;96090.06;;;22.59;57.22
78073;BME280;67281;48.770;11.440;2023-08-01T05:15:53;96084.72;;;22.59;57.23
78073;BME280;67281;48.770;11.440;2023-08-01T05:18:20;96093.56;;;22.60;56.79
78073;BME280;67281;48.770;11.440;2023-08-01T05:20:47;96097.06;;;22.60;57.30
78073;BME280;67281;48.770;11.440;2023-08-01T05:23:13;96091.91;;;22.59;56.94
78073;BME280;67281;48.770;11.440;2023-08-01T05:25:40;96095.41;;;22.59;57.38
78073;BME280;67281;48.770;11.440;2023-08-01T05:28:07;96097.25;;;22.59;57.16
78073;BME280;67281;48.770;11.440;2023-08-01T05:30:34;96106.91;;;22.60;57.05
78073;BME280;67281;48.770;11.440;2023-08-01T05:33:01;96108.75;;;22.59;56.98
78073;BME280;67281;48.770;11.440;2023-08-01T05:35:28;96109.78;;;22.58;57.23
78073;BME280;67281;48.770;11.440;2023-08-01T05:37:55;96094.59;;;22.59;57.03
78073;BME280;67281;48.770;11.440;2023-08-01T05:40:21;96091.91;;;22.59;57.06
78073;BME280;67281;48.770;11.440;2023-08-01T05:42:48;96094.59;;;22.59;57.35
78073;BME280;67281;48.770;11.440;2023-08-01T05:45:15;96098.28;;;22.58;57.41
78073;BME280;67281;48.770;11.440;2023-08-01T05:47:42;96100.75;;;22.59;57.11
78073;BME280;67281;48.770;11.440;2023-08-01T05:50:09;96084.72;;;22.59;57.44
78073;BME280;67281;48.770;11.440;2023-08-01T05:52:36;96073.22;;;22.59;57.40
78073;BME280;67281;48.770;11.440;2023-08-01T05:55:03;96061.72;;;22.58;56.80
78073;BME280;67281;48.770;11.440;2023-08-01T05:57:30;96044.88;;;22.58;57.33
78073;BME280;67281;48.770;11.440;2023-08-01T05:59:57;96031.53;;;22.58;56.99
78073;BME280;67281;48.770;11.440;2023-08-01T06:02:24;96025.97;;;22.59;56.79
78073;BME280;67281;48.770;11.440;2023-08-01T06:04:51;96017.16;;;22.59;57.65
78073;BME280;67281;48.770;11.440;2023-08-01T06:07:18;96023.09;;;22.61;56.85
78073;BME280;67281;48.770;11.440;2023-08-01T06:09:50;96025.97;;;22.59;57.11
78073;BME280;67281;48.770;11.440;2023-08-01T06:12:20;96017.75;;;22.61;56.98
78073;BME280;67281;48.770;11.440;2023-08-01T06:14:47;96017.97;;;22.59;57.11
78073;BME280;67281;48.770;11.440;2023-08-01T06:17:15;96018.78;;;22.60;56.88
78073;BME280;67281;48.770;11.440;2023-08-01T06:19:42;96028.44;;;22.61;57.27
78073;BME280;67281;48.770;11.440;2023-08-01T06:22:09;96022.28;;;22.60;57.19
78073;BME280;67281;48.770;11.440;2023-08-01T06:24:36;96019.59;;;22.60;56.58
78073;BME280;67281;48.770;11.440;2023-08-01T06:27:03;96016.94;;;22.60;57.33
78073;BME280;67281;48.770;11.440;2023-08-01T06:29:31;96031.09;;;22.61;56.79
78073;BME280;67281;48.770;11.440;2023-08-01T06:31:58;96033.78;;;22.61;56.98
78073;BME280;67281;48.770;11.440;2023-08-01T06:34:25;96031.94;;;22.61;56.70
78073;BME280;67281;48.770;11.440;2023-08-01T06:36:53;96033.56;;;22.62;56.90
78073;BME280;67281;48.770;11.440;2023-08-01T06:39:20;96033.78;;;22.61;57.11
78073;BME280;67281;48.770;11.440;2023-08-01T06:41:47;96031.94;;;22.61;57.01
78073;BME280;67281;48.770;11.440;2023-08-01T06:44:13;96030.06;;;22.62;57.20
78073;BME280;67281;48.770;11.440;2023-08-01T06:46:40;96040.75;;;22.62;58.04
78073;BME280;67281;48.770;11.440;2023-08-01T06:49:08;96044.25;;;22.62;57.57
78073;BME280;67281;48.770;11.440;2023-08-01T06:51:35;96037.25;;;22.61;57.32
78073;BME280;67281;48.770;11.440;2023-08-01T06:54:02;96036.03;;;22.64;57.75
78073;BME280;67281;48.770;11.440;2023-08-01T06:56:29;96026.16;;;22.65;57.71
78073;BME280;67281;48.770;11.440;2023-08-01T06:58:56;96035.00;;;22.65;57.42
78073;BME280;67281;48.770;11.440;2023-08-01T07:01:23;96027.19;;;22.63;56.51
78073;BME280;67281;48.770;11.440;2023-08-01T07:03:50;96027.19;;;22.63;57.31
78073;BME280;67281;48.770;11.440;2023-08-01T07:06:20;96020.00;;;22.64;56.45
78073;BME280;67281;48.770;11.440;2023-08-01T07:08:47;96033.34;;;22.64;57.75
78073;BME280;67281;48.770;11.440;2023-08-01T07:11:13;96028.44;;;22.61;57.67
78073;BME280;67281;48.770;11.440;2023-08-01T07:13:40;96026.38;;;22.63;57.17
78073;BME280;67281;48.770;11.440;2023-08-01T07:16:07;96031.50;;;22.65;58.25
78073;BME280;67281;48.770;11.440;2023-08-01T07:18:34;96037.88;;;22.63;57.67
78073;BME280;67281;48.770;11.440;2023-08-01T07:21:03;96041.16;;;22.66;57.79
78073;BME280;67281;48.770;11.440;2023-08-01T07:23:32;96032.94;;;22.67;58.14
78073;BME280;67281;48.770;11.440;2023-08-01T07:25:59;96035.59;;;22.67;56.70
78073;BME280;67281;48.770;11.440;2023-08-01T07:28:26;96029.22;;;22.68;58.00
78073;BME280;67281;48.770;11.440;2023-08-01T07:31:00;96018.53;;;22.68;57.65
78073;BME280;67281;48.770;11.440;2023-08-01T07:33:28;96023.66;;;22.70;57.30
78073;BME280;67281;48.770;11.440;2023-08-01T07:35:55;96024.50;;;22.70;57.88
78073;BME280;67281;48.770;11.440;2023-08-01T07:38:22;96027.16;;;22.70;57.72
78073;BME280;67281;48.770;11.440;2023-08-01T07:40:50;96021.00;;;22.70;57.77
78073;BME280;67281;48.770;11.440;2023-08-01T07:43:17;96021.00;;;22.70;57.94
78073;BME280;67281;48.770;11.440;2023-08-01T07:45:45;96025.31;;;22.71;58.42
78073;BME280;67281;48.770;11.440;2023-08-01T07:48:16;96016.47;;;22.70;57.45
78073;BME280;67281;48.770;11.440;2023-08-01T07:50:43;96013.00;;;22.70;57.10
78073;BME280;67281;48.770;11.440;2023-08-01T07:53:10;96032.50;;;22.70;57.76
78073;BME280;67281;48.770;11.440;2023-08-01T07:55:37;96036.22;;;22.69;58.25
78073;BME280;67281;48.770;11.440;2023-08-01T07:58:04;96045.25;;;22.68;58.69
78073;BME280;67281;48.770;11.440;2023-08-01T08:00:31;96045.25;;;22.68;57.63
78073;BME280;67281;48.770;11.440;2023-08-01T08:02:58;96067.44;;;22.69;57.08
78073;BME280;67281;48.770;11.440;2023-08-01T08:05:25;96062.09;;;22.69;57.16
78073;BME280;67281;48.770;11.440;2023-08-01T08:07:52;96070.09;;;22.69;58.39
78073;BME280;67281;48.770;11.440;2023-08-01T08:10:19;96067.66;;;22.67;57.68
78073;BME280;67281;48.770;11.440;2023-08-01T08:12:46;96066.00;;;22.66;58.13
78073;BME280;67281;48.770;11.440;2023-08-01T08:15:13;96075.06;;;22.65;58.98
78073;BME280;67281;48.770;11.440;2023-08-01T08:17:42;96076.28;;;22.62;57.82
78073;BME280;67281;48.770;11.440;2023-08-01T08:20:09;96077.72;;;22.65;57.91
78073;BME280;67281;48.770;11.440;2023-08-01T08:22:36;96075.66;;;22.67;57.56
78073;BME280;67281;48.770;11.440;2023-08-01T08:25:03;96081.00;;;22.67;57.67
78073;BME280;67281;48.770;11.440;2023-08-01T08:27:30;96077.72;;;22.65;57.25
78073;BME280;67281;48.770;11.440;2023-08-01T08:29:57;96081.22;;;22.66;57.99
78073;BME280;67281;48.770;11.440;2023-08-01T08:32:24;96070.75;;;22.64;58.40
78073;BME280;67281;48.770;11.440;2023-08-01T08:34:51;96070.34;;;22.60;58.90
78073;BME280;67281;48.770;11.440;2023-08-01T08:37:18;96070.75;;;22.57;58.48
78073;BME280;67281;48.770;11.440;2023-08-01T08:39:46;96066.03;;;22.59;58.17
78073;BME280;67281;48.770;11.440;2023-08-01T08:42:13;96063.16;;;22.61;58.49
78073;BME280;67281;48.770;11.440;2023-08-01T08:44:42;96065.41;;;22.64;57.36
78073;BME280;67281;48.770;11.440;2023-08-01T08:47:11;96062.94;;;22.62;57.63
78073;BME280;67281;48.770;11.440;2023-08-01T08:49:39;96058.41;;;22.63;57.10
78073;BME280;67281;48.770;11.440;2023-08-01T08:52:07;96068.50;;;22.61;57.83
78073;BME280;67281;48.770;11.440;2023-08-01T08:54:36;96070.34;;;22.60;57.74
78073;BME280;67281;48.770;11.440;2023-08-01T08:57:07;96074.44;;;22.63;58.02
78073;BME280;67281;48.770;11.440;2023-08-01T08:59:35;96072.38;;;22.65;57.43
78073;BME280;67281;48.770;11.440;2023-08-01T09:02:02;96073.41;;;22.64;57.08
78073;BME280;67281;48.770;11.440;2023-08-01T09:04:31;96083.88;;;22.66;57.37
78073;BME280;67281;48.770;11.440;2023-08-01T09:07:02;96082.25;;;22.65;58.13
78073;BME280;67281;48.770;11.440;2023-08-01T09:09:31;96102.78;;;22.64;58.61
78073;BME280;67281;48.770;11.440;2023-08-01T09:11:59;96109.78;;;22.65;57.17
78073;BME280;67281;48.770;11.440;2023-08-01T09:14:26;96122.31;;;22.65;56.93
78073;BME280;67281;48.770;11.440;2023-08-01T09:16:53;96110.19;;;22.62;57.39
78073;BME280;67281;48.770;11.440;2023-08-01T09:19:22;96104.63;;;22.63;57.83
78073;BME280;67281;48.770;11.440;2023-08-01T09:21:50;96100.13;;;22.64;57.12
78073;BME280;67281;48.770;11.440;2023-08-01T09:24:18;96096.00;;;22.61;58.21
78073;BME280;67281;48.770;11.440;2023-08-01T09:26:47;96100.31;;;22.62;57.93
78073;BME280;67281;48.770;11.440;2023-08-01T09:29:19;96105.88;;;22.61;57.96
78073;BME280;67281;48.770;11.440;2023-08-01T09:31:47;96099.72;;;22.60;58.05
78073;BME280;67281;48.770;11.440;2023-08-01T09:34:21;96105.06;;;22.60;57.82
78073;BME280;67281;48.770;11.440;2023-08-01T09:36:48;96098.72;;;22.55;58.28
78073;BME280;67281;48.770;11.440;2023-08-01T09:39:17;96098.28;;;22.58;58.06
78073;BME280;67281;48.770;11.440;2023-08-01T09:41:45;96117.59;;;22.60;58.31
78073;BME280;67281;48.770;11.440;2023-08-01T09:44:15;96122.31;;;22.58;58.63
78073;BME280;67281;48.770;11.440;2023-08-01T09:46:43;96083.50;;;22.55;58.23
78073;BME280;67281;48.770;11.440;2023-08-01T09:49:11;96082.28;;;22.51;59.07
78073;BME280;67281;48.770;11.440;2023-08-01T09:51:49;96096.84;;;22.55;58.29
78073;BME280;67281;48.770;11.440;2023-08-01T09:54:17;96103.03;;;22.56;58.56
78073;BME280;67281;48.770;11.440;2023-08-01T09:56:45;96097.91;;;22.48;58.79
78073;BME280;67281;48.770;11.440;2023-08-01T09:59:13;96090.50;;;22.50;58.81
78073;BME280;67281;48.770;11.440;2023-08-01T10:01:44;96095.63;;;22.51;58.93
78073;BME280;67281;48.770;11.440;2023-08-01T10:04:12;96098.31;;;22.45;59.21
78073;BME280;67281;48.770;11.440;2023-08-01T10:06:42;96090.94;;;22.47;58.43
78073;BME280;67281;48.770;11.440;2023-08-01T10:09:11;96081.06;;;22.47;59.03
78073;BME280;67281;48.770;11.440;2023-08-01T10:11:40;96071.22;;;22.48;58.05
78073;BME280;67281;48.770;11.440;2023-08-01T10:14:07;96060.53;;;22.48;58.40
78073;BME280;67281;48.770;11.440;2023-08-01T10:16:36;96053.56;;;22.47;58.48
78073;BME280;67281;48.770;11.440;2023-08-01T10:19:06;96059.28;;;22.50;58.53
78073;BME280;67281;48.770;11.440;2023-08-01T10:21:33;96064.84;;;22.49;58.51
78073;BME280;67281;48.770;11.440;2023-08-01T10:24:02;96072.84;;;22.49;58.55
78073;BME280;67281;48.770;11.440;2023-08-01T10:26:30;96071.22;;;22.48;58.26
78073;BME280;67281;48.770;11.440;2023-08-01T10:28:57;96072.84;;;22.49;58.88
78073;BME280;67281;48.770;11.440;2023-08-01T10:31:26;96061.13;;;22.50;58.61
78073;BME280;67281;48.770;11.440;2023-08-01T10:34:06;96069.16;;;22.50;58.87
78073;BME280;67281;48.770;11.440;2023-08-01T10:36:34;96071.81;;;22.50;58.86
78073;BME280;67281;48.770;11.440;2023-08-01T10:39:01;96058.28;;;22.45;58.62
78073;BME280;67281;48.770;11.440;2023-08-01T10:41:34;96057.66;;;22.43;59.15
78073;BME280;67281;48.770;11.440;2023-08-01T10:46:56;96059.72;;;22.47;58.80
78073;BME280;67281;48.770;11.440;2023-08-01T10:49:37;96051.50;;;22.49;58.08
78073;BME280;67281;48.770;11.440;2023-08-01T10:52:22;96069.34;;;22.48;58.48
78073;BME280;67281;48.770;11.440;2023-08-01T10:55:05;96068.13;;;22.44;58.54
78073;BME280;67281;48.770;11.440;2023-08-01T10:57:36;96074.09;;;22.46;58.63
78073;BME280;67281;48.770;11.440;2023-08-01T11:00:04;96067.53;;;22.42;58.75
78073;BME280;67281;48.770;11.440;2023-08-01T11:02:36;96074.09;;;22.40;58.13
78073;BME280;67281;48.770;11.440;2023-08-01T11:05:06;96078.84;;;22.38;58.73
78073;BME280;67281;48.770;11.440;2023-08-01T11:07:34;96074.09;;;22.40;58.41
78073;BME280;67281;48.770;11.440;2023-08-01T11:10:11;96077.81;;;22.39;58.70
78073;BME280;67281;48.770;11.440;2023-08-01T11:12:40;96075.13;;;22.39;58.54
78073;BME280;67281;48.770;11.440;2023-08-01T11:15:09;96092.78;;;22.40;58.50
78073;BME280;67281;48.770;11.440;2023-08-01T11:17:40;96089.91;;;22.41;58.39
78073;BME280;67281;48.770;11.440;2023-08-01T11:20:09;96092.38;;;22.43;57.63
78073;BME280;67281;48.770;11.440;2023-08-01T11:22:38;96096.69;;;22.44;57.51
78073;BME280;67281;48.770;11.440;2023-08-01T11:25:06;96094.84;;;22.44;57.66
78073;BME280;67281;48.770;11.440;2023-08-01T11:27:33;96089.09;;;22.41;57.54
78073;BME280;67281;48.770;11.440;2023-08-01T11:30:00;96086.00;;;22.44;57.33
78073;BME280;67281;48.770;11.440;2023-08-01T11:32:34;96085.19;;;22.43;57.50
78073;BME280;67281;48.770;11.440;2023-08-01T11:35:02;96086.84;;;22.38;58.52
78073;BME280;67281;48.770;11.440;2023-08-01T11:37:30;96076.78;;;22.40;57.49
78073;BME280;67281;48.770;11.440;2023-08-01T11:39:58;96081.09;;;22.41;58.13
78073;BME280;67281;48.770;11.440;2023-08-01T11:42:30;96067.13;;;22.39;58.44
78073;BME280;67281;48.770;11.440;2023-08-01T11:45:08;96060.56;;;22.41;57.93
78073;BME280;67281;48.770;11.440;2023-08-01T11:47:34;96066.31;;;22.38;58.30
78073;BME280;67281;48.770;11.440;2023-08-01T11:50:01;96069.19;;;22.37;57.50
78073;BME280;67281;48.770;11.440;2023-08-01T11:52:28;96078.22;;;22.36;58.22
78073;BME280;67281;48.770;11.440;2023-08-01T11:54:55;96077.00;;;22.32;58.39
78073;BME280;67281;48.770;11.440;2023-08-01T11:57:22;96082.13;;;22.33;58.48
78073;BME280;67281;48.770;11.440;2023-08-01T11:59:52;96077.00;;;22.32;58.05
78073;BME280;67281;48.770;11.440;2023-08-01T12:02:27;96089.75;;;22.29;58.55
78073;BME280;67281;48.770;11.440;2023-08-01T12:04:56;96095.47;;;22.33;57.71
78073;BME280;67281;48.770;11.440;2023-08-01T12:07:26;96083.59;;;22.29;58.12
78073;BME280;67281;48.770;11.440;2023-08-01T12:10:00;96088.50;;;22.32;58.22
78073;BME280;67281;48.770;11.440;2023-08-01T12:12:27;96093.44;;;22.28;58.41
78073;BME280;67281;48.770;11.440;2023-08-01T12:14:55;96088.09;;;22.28;58.71
78073;BME280;67281;48.770;11.440;2023-08-01T12:17:22;96097.53;;;22.31;58.00
78073;BME280;67281;48.770;11.440;2023-08-01T12:19:49;96085.66;;;22.27;58.82
78073;BME280;67281;48.770;11.440;2023-08-01T12:22:16;96081.16;;;22.27;58.28
78073;BME280;67281;48.770;11.440;2023-08-01T12:24:43;96085.22;;;22.30;58.27
78073;BME280;67281;48.770;11.440;2023-08-01T12:27:10;96080.69;;;22.30;57.70
78073;BME280;67281;48.770;11.440;2023-08-01T12:29:37;96082.34;;;22.32;57.79
78073;BME280;67281;48.770;11.440;2023-08-01T12:32:06;96086.03;;;22.30;57.71
78073;BME280;67281;48.770;11.440;2023-08-01T12:34:34;96075.75;;;22.34;57.58
78073;BME280;67281;48.770;11.440;2023-08-01T12:37:01;96071.25;;;22.35;58.01
78073;BME280;67281;48.770;11.440;2023-08-01T12:39:27;96074.94;;;22.34;58.35
78073;BME280;67281;48.770;11.440;2023-08-01T12:41:55;96069.19;;;22.37;57.93
78073;BME280;67281;48.770;11.440;2023-08-01T12:44:22;96071.25;;;22.35;57.85
78073;BME280;67281;48.770;11.440;2023-08-01T12:46:50;96065.50;;;22.38;57.69
78073;BME280;67281;48.770;11.440;2023-08-01T12:49:18;96068.78;;;22.40;58.38
78073;BME280;67281;48.770;11.440;2023-08-01T12:51:45;96069.59;;;22.40;58.94
78073;BME280;67281;48.770;11.440;2023-08-01T12:54:17;96076.16;;;22.44;58.46
78073;BME280;67281;48.770;11.440;2023-08-01T12:56:43;96074.91;;;22.47;57.63